createdAt,value
2018-07-31T00:00:03.642Z,1003.38
2018-07-31T00:01:03.687Z,1003.37
2018-07-31T00:02:03.714Z,1003.33
2018-07-31T00:03:03.746Z,1003.32
2018-07-31T00:04:03.755Z,1003.30
2018-07-31T00:05:03.807Z,1003.26
2018-07-31T00:06:03.802Z,1003.31
2018-07-31T00:07:03.860Z,1003.28
2018-07-31T00:08:03.884Z,1003.29
2018-07-31T00:09:03.900Z,1003.27
2018-07-31T00:10:03.919Z,1003.26
2018-07-31T00:11:03.944Z,1003.32
2018-07-31T00:12:03.980Z,1003.28
2018-07-31T00:13:04.011Z,1003.30
2018-07-31T00:14:04.027Z,1003.29
2018-07-31T00:15:04.057Z,1003.33
2018-07-31T00:16:04.080Z,1003.31
2018-07-31T00:17:04.104Z,1003.34
2018-07-31T00:18:04.151Z,1003.34
2018-07-31T00:19:04.180Z,1003.30
2018-07-31T00:20:04.196Z,1003.31
2018-07-31T00:21:04.224Z,1003.31
2018-07-31T00:22:04.251Z,1003.34
2018-07-31T00:23:04.377Z,1003.30
2018-07-31T00:25:04.370Z,1003.32
2018-07-31T00:26:04.364Z,1003.34
2018-07-31T00:27:04.415Z,1003.30
2018-07-31T00:28:04.440Z,1003.31
2018-07-31T00:29:04.447Z,1003.33
2018-07-31T00:30:04.471Z,1003.31
2018-07-31T00:31:04.504Z,1003.31
2018-07-31T00:32:04.538Z,1003.32
2018-07-31T00:33:04.555Z,1003.27
2018-07-31T00:34:04.688Z,1003.31
2018-07-31T00:35:04.616Z,1003.30
2018-07-31T00:36:04.641Z,1003.28
2018-07-31T00:37:04.671Z,1003.30
2018-07-31T00:38:04.700Z,1003.26
2018-07-31T00:39:04.716Z,1003.24
2018-07-31T00:40:04.745Z,1003.28
2018-07-31T00:41:04.774Z,1003.26
2018-07-31T00:42:04.811Z,1003.24
2018-07-31T00:43:04.854Z,1003.24
2018-07-31T00:44:04.859Z,1003.25
2018-07-31T00:45:04.893Z,1003.20
2018-07-31T00:46:04.918Z,1003.22
2018-07-31T00:47:04.945Z,1003.20
2018-07-31T00:48:04.973Z,1003.21
2018-07-31T00:49:05.008Z,1003.20
2018-07-31T00:50:05.035Z,1003.18
2018-07-31T00:51:05.047Z,1003.17
2018-07-31T00:52:05.082Z,1003.19
2018-07-31T00:53:05.113Z,1003.19
2018-07-31T00:54:05.137Z,1003.19
2018-07-31T00:55:05.166Z,1003.18
2018-07-31T00:56:05.199Z,1003.17
2018-07-31T00:57:05.238Z,1003.23
2018-07-31T00:58:05.401Z,1003.18
2018-07-31T00:59:05.293Z,1003.16
2018-07-31T01:00:05.313Z,1003.18
2018-07-31T01:01:05.332Z,1003.12
2018-07-31T01:02:05.363Z,1003.16
2018-07-31T01:03:05.387Z,1003.13
2018-07-31T01:04:05.416Z,1003.16
2018-07-31T01:05:05.560Z,1003.15
2018-07-31T01:06:05.465Z,1003.20
2018-07-31T01:07:05.493Z,1003.17
2018-07-31T01:08:05.600Z,1003.19
2018-07-31T01:09:05.574Z,1003.18
2018-07-31T01:10:05.579Z,1003.20
2018-07-31T01:11:05.656Z,1003.17
2018-07-31T01:12:05.636Z,1003.15
2018-07-31T01:13:05.673Z,1003.17
2018-07-31T01:14:05.687Z,1003.18
2018-07-31T01:15:05.732Z,1003.16
2018-07-31T01:16:05.754Z,1003.18
2018-07-31T01:17:05.775Z,1003.17
2018-07-31T01:18:05.799Z,1003.21
2018-07-31T01:19:05.834Z,1003.19
2018-07-31T01:20:05.862Z,1003.18
2018-07-31T01:21:05.892Z,1003.16
2018-07-31T01:22:05.922Z,1003.17
2018-07-31T01:23:05.954Z,1003.20
2018-07-31T01:24:05.964Z,1003.21
2018-07-31T01:25:05.993Z,1003.22
2018-07-31T01:26:06.035Z,1003.18
2018-07-31T01:28:06.088Z,1003.17
2018-07-31T01:29:06.099Z,1003.18
2018-07-31T01:30:06.131Z,1003.18
2018-07-31T01:31:06.164Z,1003.16
2018-07-31T01:32:06.184Z,1003.18
2018-07-31T01:33:06.207Z,1003.16
2018-07-31T01:34:06.229Z,1003.17
2018-07-31T01:35:06.260Z,1003.17
2018-07-31T01:36:06.301Z,1003.15
2018-07-31T01:37:06.314Z,1003.19
2018-07-31T01:38:06.348Z,1003.17
2018-07-31T01:39:06.373Z,1003.18
2018-07-31T01:40:06.400Z,1003.18
2018-07-31T01:41:06.433Z,1003.15
2018-07-31T01:42:06.465Z,1003.18
2018-07-31T01:43:06.496Z,1003.15
2018-07-31T01:44:06.514Z,1003.12
2018-07-31T01:45:06.532Z,1003.13
2018-07-31T01:46:06.659Z,1003.09
2018-07-31T01:47:06.601Z,1003.11
2018-07-31T01:48:06.663Z,1003.09
2018-07-31T01:49:06.675Z,1003.11
2018-07-31T01:50:06.679Z,1003.10
2018-07-31T01:52:06.760Z,1003.09
2018-07-31T01:53:06.752Z,1003.09
2018-07-31T01:54:06.786Z,1003.10
2018-07-31T01:55:06.809Z,1003.09
2018-07-31T01:56:06.833Z,1003.09
2018-07-31T01:57:06.862Z,1003.09
2018-07-31T01:58:06.890Z,1003.06
2018-07-31T01:59:06.915Z,1003.09
2018-07-31T02:00:06.938Z,1003.04
2018-07-31T02:01:06.967Z,1003.10
2018-07-31T02:02:07.003Z,1003.07
2018-07-31T02:03:07.024Z,1003.08
2018-07-31T02:04:07.058Z,1003.05
2018-07-31T02:05:07.078Z,1003.03
2018-07-31T02:06:07.109Z,1003.07
2018-07-31T02:07:07.150Z,1003.06
2018-07-31T02:09:07.188Z,1003.03
2018-07-31T02:10:07.213Z,1003.03
2018-07-31T02:11:07.245Z,1003.02
2018-07-31T02:12:07.271Z,1003.01
2018-07-31T02:13:07.298Z,1003.03
2018-07-31T02:14:07.329Z,1003.05
2018-07-31T02:15:07.353Z,1003.08
2018-07-31T02:16:07.378Z,1003.05
2018-07-31T02:17:07.407Z,1003.03
2018-07-31T02:18:07.427Z,1003.01
2018-07-31T02:20:07.489Z,1003.00
2018-07-31T02:22:07.540Z,1002.93
2018-07-31T02:23:07.571Z,1002.98
2018-07-31T02:24:07.590Z,1002.95
2018-07-31T02:25:07.621Z,1002.95
2018-07-31T02:26:07.660Z,1002.99
2018-07-31T02:27:07.677Z,1002.96
2018-07-31T02:28:07.805Z,1003.02
2018-07-31T02:29:07.734Z,1003.01
2018-07-31T02:30:07.761Z,1003.01
2018-07-31T02:31:07.783Z,1002.99
2018-07-31T02:32:07.812Z,1003.01
2018-07-31T02:33:07.842Z,1003.01
2018-07-31T02:34:07.864Z,1002.99
2018-07-31T02:35:07.895Z,1002.98
2018-07-31T02:36:07.917Z,1003.00
2018-07-31T02:37:07.961Z,1003.01
2018-07-31T02:38:07.978Z,1003.03
2018-07-31T02:39:07.999Z,1003.03
2018-07-31T02:40:08.027Z,1003.02
2018-07-31T02:41:08.050Z,1003.06
2018-07-31T02:42:08.084Z,1003.05
2018-07-31T02:43:08.104Z,1003.07
2018-07-31T02:44:08.129Z,1003.05
2018-07-31T02:45:08.165Z,1003.03
2018-07-31T02:46:08.255Z,1003.02
2018-07-31T02:47:08.223Z,1002.98
2018-07-31T02:48:08.269Z,1002.97
2018-07-31T02:49:08.286Z,1002.95
2018-07-31T02:50:08.295Z,1002.96
2018-07-31T02:51:08.321Z,1002.99
2018-07-31T02:52:08.351Z,1003.00
2018-07-31T02:53:08.376Z,1002.97
2018-07-31T02:55:08.492Z,1003.01
2018-07-31T02:56:08.466Z,1002.99
2018-07-31T02:57:08.488Z,1003.00
2018-07-31T02:58:08.577Z,1003.01
2018-07-31T02:59:08.539Z,1002.98
2018-07-31T03:00:08.569Z,1002.98
2018-07-31T03:01:08.592Z,1002.96
2018-07-31T03:02:08.615Z,1002.98
2018-07-31T03:03:08.640Z,1002.99
2018-07-31T03:04:08.672Z,1002.97
2018-07-31T03:05:08.701Z,1003.01
2018-07-31T03:06:08.759Z,1002.99
2018-07-31T03:07:08.751Z,1002.97
2018-07-31T03:08:08.802Z,1003.00
2018-07-31T03:09:08.805Z,1003.03
2018-07-31T03:10:08.830Z,1003.03
2018-07-31T03:11:08.867Z,1002.98
2018-07-31T03:12:08.885Z,1003.06
2018-07-31T03:13:08.909Z,1003.07
2018-07-31T03:15:08.974Z,1003.10
2018-07-31T03:16:08.984Z,1003.09
2018-07-31T03:17:09.021Z,1003.11
2018-07-31T03:18:09.045Z,1003.10
2018-07-31T03:19:09.065Z,1003.15
2018-07-31T03:20:09.103Z,1003.11
2018-07-31T03:21:09.129Z,1003.10
2018-07-31T03:22:09.160Z,1003.09
2018-07-31T03:23:09.181Z,1003.10
2018-07-31T03:24:09.246Z,1003.13
2018-07-31T03:25:09.233Z,1003.13
2018-07-31T03:26:09.304Z,1003.15
2018-07-31T03:27:09.284Z,1003.14
2018-07-31T03:28:09.328Z,1003.13
2018-07-31T03:29:09.344Z,1003.13
2018-07-31T03:30:09.369Z,1003.14
2018-07-31T03:31:09.391Z,1003.12
2018-07-31T03:32:09.422Z,1003.13
2018-07-31T03:33:09.441Z,1003.14
2018-07-31T03:34:09.465Z,1003.11
2018-07-31T03:35:09.500Z,1003.05
2018-07-31T03:36:09.516Z,1003.08
2018-07-31T03:38:09.572Z,1003.07
2018-07-31T03:39:09.602Z,1003.11
2018-07-31T03:40:09.636Z,1003.14
2018-07-31T03:41:09.657Z,1003.12
2018-07-31T03:42:09.685Z,1003.14
2018-07-31T03:43:09.705Z,1003.15
2018-07-31T03:44:09.734Z,1003.14
2018-07-31T03:46:09.789Z,1003.18
2018-07-31T03:47:09.820Z,1003.20
2018-07-31T03:48:09.943Z,1003.19
2018-07-31T03:49:09.869Z,1003.20
2018-07-31T03:50:10.056Z,1003.16
2018-07-31T03:51:09.916Z,1003.19
2018-07-31T03:52:09.952Z,1003.19
2018-07-31T03:53:09.968Z,1003.17
2018-07-31T03:54:10.005Z,1003.22
2018-07-31T03:55:10.030Z,1003.20
2018-07-31T03:56:10.056Z,1003.16
2018-07-31T03:57:10.077Z,1003.18
2018-07-31T03:58:10.115Z,1003.17
2018-07-31T03:59:10.180Z,1003.18
2018-07-31T04:00:10.162Z,1003.19
2018-07-31T04:01:10.270Z,1003.19
2018-07-31T04:02:10.220Z,1003.21
2018-07-31T04:04:10.262Z,1003.23
2018-07-31T04:05:10.297Z,1003.26
2018-07-31T04:06:10.317Z,1003.20
2018-07-31T04:07:10.345Z,1003.27
2018-07-31T04:08:10.372Z,1003.28
2018-07-31T04:09:10.403Z,1003.27
2018-07-31T04:10:10.423Z,1003.26
2018-07-31T04:11:10.451Z,1003.30
2018-07-31T04:12:10.550Z,1003.29
2018-07-31T04:13:10.519Z,1003.26
2018-07-31T04:14:10.534Z,1003.28
2018-07-31T04:15:10.552Z,1003.31
2018-07-31T04:16:10.626Z,1003.31
2018-07-31T04:17:10.666Z,1003.32
2018-07-31T04:18:10.643Z,1003.29
2018-07-31T04:19:10.663Z,1003.26
2018-07-31T04:20:10.689Z,1003.29
2018-07-31T04:21:10.713Z,1003.28
2018-07-31T04:22:10.745Z,1003.26
2018-07-31T04:23:10.835Z,1003.27
2018-07-31T04:24:10.800Z,1003.29
2018-07-31T04:26:10.847Z,1003.33
2018-07-31T04:27:10.865Z,1003.37
2018-07-31T04:28:10.903Z,1003.33
2018-07-31T04:29:10.928Z,1003.35
2018-07-31T04:30:11.002Z,1003.35
2018-07-31T04:31:10.976Z,1003.37
2018-07-31T04:32:11.000Z,1003.36
2018-07-31T04:33:11.049Z,1003.33
2018-07-31T04:34:11.084Z,1003.36
2018-07-31T04:35:11.091Z,1003.36
2018-07-31T04:36:11.152Z,1003.34
2018-07-31T04:37:11.134Z,1003.35
2018-07-31T04:38:11.160Z,1003.37
2018-07-31T04:39:11.196Z,1003.37
2018-07-31T04:40:11.217Z,1003.37
2018-07-31T04:41:11.289Z,1003.38
2018-07-31T04:43:11.303Z,1003.38
2018-07-31T04:44:11.318Z,1003.38
2018-07-31T04:46:11.370Z,1003.38
2018-07-31T04:47:11.399Z,1003.42
2018-07-31T04:48:11.424Z,1003.42
2018-07-31T04:49:11.449Z,1003.43
2018-07-31T04:50:11.487Z,1003.42
2018-07-31T04:51:11.506Z,1003.46
2018-07-31T04:52:11.545Z,1003.43
2018-07-31T04:53:11.558Z,1003.41
2018-07-31T04:54:11.603Z,1003.42
2018-07-31T04:55:11.614Z,1003.42
2018-07-31T04:56:11.645Z,1003.45
2018-07-31T04:57:11.681Z,1003.44
2018-07-31T04:58:11.711Z,1003.45
2018-07-31T04:59:11.723Z,1003.44
2018-07-31T05:00:11.739Z,1003.42
2018-07-31T05:01:11.774Z,1003.43
2018-07-31T05:02:11.800Z,1003.47
2018-07-31T05:03:11.820Z,1003.47
2018-07-31T05:04:11.906Z,1003.47
2018-07-31T05:05:11.935Z,1003.44
2018-07-31T05:06:11.912Z,1003.50
2018-07-31T05:07:11.977Z,1003.49
2018-07-31T05:08:11.945Z,1003.49
2018-07-31T05:09:11.972Z,1003.49
2018-07-31T05:10:12.013Z,1003.50
2018-07-31T05:11:12.084Z,1003.49
2018-07-31T05:12:12.070Z,1003.47
2018-07-31T05:13:12.079Z,1003.49
2018-07-31T05:14:12.125Z,1003.48
2018-07-31T05:15:12.141Z,1003.53
2018-07-31T05:16:12.265Z,1003.55
2018-07-31T05:17:12.196Z,1003.54
2018-07-31T05:19:12.269Z,1003.59
2018-07-31T05:20:12.269Z,1003.58
2018-07-31T05:21:12.292Z,1003.63
2018-07-31T05:22:12.356Z,1003.62
2018-07-31T05:23:12.363Z,1003.64
2018-07-31T05:24:12.374Z,1003.62
2018-07-31T05:25:12.418Z,1003.66
2018-07-31T05:26:12.439Z,1003.66
2018-07-31T05:27:12.488Z,1003.69
2018-07-31T05:28:12.482Z,1003.65
2018-07-31T05:29:12.501Z,1003.65
2018-07-31T05:30:12.594Z,1003.70
2018-07-31T05:31:12.560Z,1003.70
2018-07-31T05:32:12.609Z,1003.72
2018-07-31T05:33:12.612Z,1003.70
2018-07-31T05:35:12.688Z,1003.71
2018-07-31T05:36:12.696Z,1003.72
2018-07-31T05:37:12.712Z,1003.74
2018-07-31T05:38:12.760Z,1003.76
2018-07-31T05:39:12.787Z,1003.78
2018-07-31T05:40:12.795Z,1003.81
2018-07-31T05:42:12.854Z,1003.79
2018-07-31T05:43:12.879Z,1003.82
2018-07-31T05:44:12.905Z,1003.84
2018-07-31T05:45:12.937Z,1003.86
2018-07-31T05:46:12.960Z,1003.82
2018-07-31T05:47:12.987Z,1003.81
2018-07-31T05:48:13.007Z,1003.83
2018-07-31T05:49:13.044Z,1003.85
2018-07-31T05:50:13.064Z,1003.85
2018-07-31T05:51:13.105Z,1003.88
2018-07-31T05:52:13.123Z,1003.87
2018-07-31T05:53:13.195Z,1003.90
2018-07-31T05:54:13.166Z,1003.89
2018-07-31T05:55:13.197Z,1003.89
2018-07-31T05:56:13.233Z,1003.88
2018-07-31T05:57:13.251Z,1003.91
2018-07-31T05:58:13.275Z,1003.88
2018-07-31T05:59:13.301Z,1003.94
2018-07-31T06:00:13.352Z,1003.91
2018-07-31T06:01:13.377Z,1003.90
2018-07-31T06:02:13.382Z,1003.94
2018-07-31T06:03:13.405Z,1003.91
2018-07-31T06:04:13.447Z,1003.93
2018-07-31T06:05:13.455Z,1003.93
2018-07-31T06:06:13.492Z,1003.89
2018-07-31T06:07:13.521Z,1003.90
2018-07-31T06:08:13.535Z,1003.95
2018-07-31T06:09:13.569Z,1003.91
2018-07-31T06:10:13.599Z,1003.96
2018-07-31T06:11:13.637Z,1003.95
2018-07-31T06:12:13.652Z,1003.92
2018-07-31T06:13:13.678Z,1003.94
2018-07-31T06:14:13.698Z,1003.95
2018-07-31T06:15:13.766Z,1003.93
2018-07-31T06:17:13.784Z,1003.98
2018-07-31T06:18:13.802Z,1003.97
2018-07-31T06:19:13.836Z,1003.98
2018-07-31T06:20:13.867Z,1003.96
2018-07-31T06:21:13.898Z,1003.97
2018-07-31T06:22:13.931Z,1004.00
2018-07-31T06:23:13.940Z,1004.04
2018-07-31T06:24:13.975Z,1004.00
2018-07-31T06:25:14.000Z,1004.01
2018-07-31T06:26:14.030Z,1003.99
2018-07-31T06:27:14.049Z,1004.03
2018-07-31T06:28:14.083Z,1004.04
2018-07-31T06:29:14.095Z,1004.06
2018-07-31T06:30:14.134Z,1004.03
2018-07-31T06:31:14.164Z,1004.08
2018-07-31T06:33:14.239Z,1004.07
2018-07-31T06:34:14.235Z,1004.08
2018-07-31T06:35:14.285Z,1004.10
2018-07-31T06:36:14.307Z,1004.10
2018-07-31T06:38:14.357Z,1004.14
2018-07-31T06:39:14.413Z,1004.10
2018-07-31T06:40:14.409Z,1004.15
2018-07-31T06:41:14.426Z,1004.13
2018-07-31T06:42:14.469Z,1004.11
2018-07-31T06:43:14.498Z,1004.17
2018-07-31T06:45:14.539Z,1004.22
2018-07-31T06:46:14.560Z,1004.23
2018-07-31T06:47:14.588Z,1004.22
2018-07-31T06:48:14.627Z,1004.26
2018-07-31T06:49:14.656Z,1004.23
2018-07-31T06:50:14.679Z,1004.25
2018-07-31T06:51:14.710Z,1004.28
2018-07-31T06:52:14.724Z,1004.28
2018-07-31T06:53:14.747Z,1004.31
2018-07-31T06:54:14.772Z,1004.32
2018-07-31T06:55:14.816Z,1004.32
2018-07-31T06:56:14.830Z,1004.33
2018-07-31T06:57:14.860Z,1004.31
2018-07-31T06:59:14.913Z,1004.29
2018-07-31T07:00:14.936Z,1004.31
2018-07-31T07:01:14.957Z,1004.31
2018-07-31T07:02:15.000Z,1004.30
2018-07-31T07:03:15.014Z,1004.32
2018-07-31T07:04:15.042Z,1004.32
2018-07-31T07:05:15.069Z,1004.33
2018-07-31T07:06:15.107Z,1004.33
2018-07-31T07:07:15.124Z,1004.35
2018-07-31T07:08:15.172Z,1004.40
2018-07-31T07:09:15.215Z,1004.33
2018-07-31T07:10:15.200Z,1004.39
2018-07-31T07:11:15.233Z,1004.37
2018-07-31T07:12:15.258Z,1004.33
2018-07-31T07:13:15.300Z,1004.35
2018-07-31T07:14:15.315Z,1004.32
2018-07-31T07:15:15.528Z,1004.33
2018-07-31T07:16:15.380Z,1004.36
2018-07-31T07:17:15.401Z,1004.34
2018-07-31T07:18:15.426Z,1004.41
2018-07-31T07:19:15.473Z,1004.40
2018-07-31T07:20:15.488Z,1004.35
2018-07-31T07:21:15.525Z,1004.36
2018-07-31T07:22:15.548Z,1004.36
2018-07-31T07:23:15.580Z,1004.34
2018-07-31T07:24:15.594Z,1004.37
2018-07-31T07:25:15.690Z,1004.36
2018-07-31T07:26:15.651Z,1004.34
2018-07-31T07:27:15.679Z,1004.32
2018-07-31T07:28:15.709Z,1004.33
2018-07-31T07:29:15.725Z,1004.30
2018-07-31T07:30:15.755Z,1004.30
2018-07-31T07:31:15.793Z,1004.31
2018-07-31T07:32:15.825Z,1004.29
2018-07-31T07:33:15.840Z,1004.30
2018-07-31T07:34:15.872Z,1004.33
2018-07-31T07:35:15.898Z,1004.30
2018-07-31T07:36:15.918Z,1004.28
2018-07-31T07:37:15.955Z,1004.27
2018-07-31T07:38:15.990Z,1004.33
2018-07-31T07:39:16.019Z,1004.28
2018-07-31T07:40:16.062Z,1004.29
2018-07-31T07:42:16.093Z,1004.30
2018-07-31T07:43:16.117Z,1004.32
2018-07-31T07:44:16.145Z,1004.33
2018-07-31T07:45:16.171Z,1004.29
2018-07-31T07:46:16.200Z,1004.33
2018-07-31T07:47:16.224Z,1004.33
2018-07-31T07:48:16.300Z,1004.33
2018-07-31T07:49:16.287Z,1004.36
2018-07-31T07:50:16.358Z,1004.33
2018-07-31T07:51:16.353Z,1004.35
2018-07-31T07:52:16.368Z,1004.35
2018-07-31T07:53:16.407Z,1004.38
2018-07-31T07:54:16.470Z,1004.40
2018-07-31T07:55:16.448Z,1004.40
2018-07-31T07:56:16.489Z,1004.42
2018-07-31T07:57:16.531Z,1004.39
2018-07-31T07:58:16.568Z,1004.41
2018-07-31T07:59:16.562Z,1004.42
2018-07-31T08:00:16.584Z,1004.41
2018-07-31T08:01:16.672Z,1004.39
2018-07-31T08:02:16.644Z,1004.39
2018-07-31T08:03:16.675Z,1004.34
2018-07-31T08:04:16.704Z,1004.34
2018-07-31T08:05:16.731Z,1004.30
2018-07-31T08:06:16.763Z,1004.33
2018-07-31T08:07:16.794Z,1004.31
2018-07-31T08:08:16.825Z,1004.32
2018-07-31T08:09:16.860Z,1004.34
2018-07-31T08:10:16.881Z,1004.37
2018-07-31T08:11:16.921Z,1004.37
2018-07-31T08:12:16.932Z,1004.32
2018-07-31T08:13:16.953Z,1004.31
2018-07-31T08:14:17.004Z,1004.32
2018-07-31T08:15:17.016Z,1004.38
2018-07-31T08:16:17.035Z,1004.35
2018-07-31T08:17:17.102Z,1004.31
2018-07-31T08:18:17.096Z,1004.35
2018-07-31T08:19:17.144Z,1004.36
2018-07-31T08:20:17.163Z,1004.37
2018-07-31T08:21:17.181Z,1004.37
2018-07-31T08:22:17.255Z,1004.38
2018-07-31T08:23:17.263Z,1004.41
2018-07-31T08:24:17.266Z,1004.40
2018-07-31T08:25:17.305Z,1004.43
2018-07-31T08:26:17.326Z,1004.41
2018-07-31T08:27:17.346Z,1004.40
2018-07-31T08:28:17.388Z,1004.42
2018-07-31T08:30:17.569Z,1004.45
2018-07-31T08:31:17.465Z,1004.44
2018-07-31T08:32:17.524Z,1004.46
2018-07-31T08:33:17.534Z,1004.46
2018-07-31T08:34:17.598Z,1004.45
2018-07-31T08:35:17.583Z,1004.45
2018-07-31T08:37:17.633Z,1004.46
2018-07-31T08:38:17.684Z,1004.49
2018-07-31T08:39:17.689Z,1004.47
2018-07-31T08:40:17.723Z,1004.46
2018-07-31T08:41:17.837Z,1004.49
2018-07-31T08:42:17.778Z,1004.46
2018-07-31T08:43:17.800Z,1004.45
2018-07-31T08:44:17.829Z,1004.43
2018-07-31T08:45:17.859Z,1004.44
2018-07-31T08:46:17.889Z,1004.42
2018-07-31T08:47:17.919Z,1004.44
2018-07-31T08:48:17.948Z,1004.45
2018-07-31T08:49:17.984Z,1004.46
2018-07-31T08:50:18.007Z,1004.48
2018-07-31T08:51:18.090Z,1004.51
2018-07-31T08:52:18.067Z,1004.50
2018-07-31T08:53:18.100Z,1004.50
2018-07-31T08:54:18.147Z,1004.51
2018-07-31T08:55:18.151Z,1004.53
2018-07-31T08:56:18.171Z,1004.54
2018-07-31T08:57:18.281Z,1004.53
2018-07-31T08:59:18.265Z,1004.54
2018-07-31T09:00:18.293Z,1004.52
2018-07-31T09:01:18.479Z,1004.50
2018-07-31T09:02:18.353Z,1004.52
2018-07-31T09:03:18.376Z,1004.56
2018-07-31T09:04:18.414Z,1004.61
2018-07-31T09:05:18.444Z,1004.53
2018-07-31T09:06:18.482Z,1004.56
2018-07-31T09:07:18.492Z,1004.56
2018-07-31T09:08:18.575Z,1004.58
2018-07-31T09:09:18.562Z,1004.56
2018-07-31T09:10:18.579Z,1004.59
2018-07-31T09:11:18.609Z,1004.58
2018-07-31T09:12:18.646Z,1004.58
2018-07-31T09:13:18.666Z,1004.55
2018-07-31T09:14:18.695Z,1004.56
2018-07-31T09:15:18.728Z,1004.56
2018-07-31T09:17:18.782Z,1004.57
2018-07-31T09:18:18.816Z,1004.58
2018-07-31T09:19:18.871Z,1004.61
2018-07-31T09:20:18.871Z,1004.58
2018-07-31T09:21:18.900Z,1004.60
2018-07-31T09:22:18.949Z,1004.63
2018-07-31T09:23:19.013Z,1004.64
2018-07-31T09:24:18.989Z,1004.62
2018-07-31T09:25:19.018Z,1004.62
2018-07-31T09:27:19.086Z,1004.63
2018-07-31T09:28:19.102Z,1004.64
2018-07-31T09:29:19.131Z,1004.64
2018-07-31T09:30:19.179Z,1004.67
2018-07-31T09:31:19.205Z,1004.66
2018-07-31T09:32:19.216Z,1004.65
2018-07-31T09:33:19.244Z,1004.68
2018-07-31T09:34:19.294Z,1004.62
2018-07-31T09:35:19.305Z,1004.68
2018-07-31T09:36:19.356Z,1004.67
2018-07-31T09:37:19.366Z,1004.72
2018-07-31T09:38:19.397Z,1004.69
2018-07-31T09:39:19.435Z,1004.62
2018-07-31T09:40:19.459Z,1004.68
2018-07-31T09:41:19.489Z,1004.67
2018-07-31T09:42:19.517Z,1004.64
2018-07-31T09:43:19.544Z,1004.68
2018-07-31T09:44:19.568Z,1004.67
2018-07-31T09:45:19.597Z,1004.70
2018-07-31T09:46:19.621Z,1004.70
2018-07-31T09:47:19.660Z,1004.68
2018-07-31T09:48:19.685Z,1004.73
2018-07-31T09:49:19.730Z,1004.73
2018-07-31T09:50:19.748Z,1004.75
2018-07-31T09:51:19.779Z,1004.72
2018-07-31T09:52:19.884Z,1004.74
2018-07-31T09:53:19.854Z,1004.78
2018-07-31T09:54:19.877Z,1004.72
2018-07-31T09:55:19.896Z,1004.70
2018-07-31T09:57:19.961Z,1004.68
2018-07-31T09:58:19.997Z,1004.67
2018-07-31T09:59:20.011Z,1004.70
2018-07-31T10:00:20.038Z,1004.66
2018-07-31T10:01:20.091Z,1004.66
2018-07-31T10:02:20.093Z,1004.69
2018-07-31T10:03:20.143Z,1004.70
2018-07-31T10:04:20.187Z,1004.67
2018-07-31T10:05:20.263Z,1004.66
2018-07-31T10:06:20.227Z,1004.68
2018-07-31T10:07:20.258Z,1004.66
2018-07-31T10:08:20.282Z,1004.66
2018-07-31T10:09:20.313Z,1004.67
2018-07-31T10:10:20.339Z,1004.64
2018-07-31T10:11:20.367Z,1004.62
2018-07-31T10:12:20.403Z,1004.63
2018-07-31T10:13:20.433Z,1004.60
2018-07-31T10:14:20.453Z,1004.63
2018-07-31T10:15:20.481Z,1004.63
2018-07-31T10:16:20.508Z,1004.58
2018-07-31T10:17:20.542Z,1004.61
2018-07-31T10:18:20.590Z,1004.61
2018-07-31T10:19:20.605Z,1004.60
2018-07-31T10:21:20.663Z,1004.56
2018-07-31T10:22:20.699Z,1004.56
2018-07-31T10:23:20.736Z,1004.55
2018-07-31T10:24:20.759Z,1004.51
2018-07-31T10:25:20.784Z,1004.55
2018-07-31T10:26:20.814Z,1004.54
2018-07-31T10:27:20.856Z,1004.54
2018-07-31T10:28:20.868Z,1004.55
2018-07-31T10:29:20.898Z,1004.54
2018-07-31T10:30:20.931Z,1004.54
2018-07-31T10:31:20.965Z,1004.53
2018-07-31T10:32:21.006Z,1004.55
2018-07-31T10:33:21.024Z,1004.57
2018-07-31T10:34:21.103Z,1004.57
2018-07-31T10:35:21.102Z,1004.54
2018-07-31T10:36:21.117Z,1004.55
2018-07-31T10:37:21.141Z,1004.58
2018-07-31T10:38:21.188Z,1004.57
2018-07-31T10:39:21.223Z,1004.57
2018-07-31T10:40:21.240Z,1004.55
2018-07-31T10:41:21.260Z,1004.53
2018-07-31T10:42:21.298Z,1004.57
2018-07-31T10:43:21.317Z,1004.56
2018-07-31T10:44:21.362Z,1004.56
2018-07-31T10:45:21.385Z,1004.55
2018-07-31T10:46:21.429Z,1004.52
2018-07-31T10:47:21.474Z,1004.55
2018-07-31T10:48:21.481Z,1004.52
2018-07-31T10:49:21.508Z,1004.50
2018-07-31T10:50:21.537Z,1004.52
2018-07-31T10:51:21.575Z,1004.50
2018-07-31T10:53:21.626Z,1004.52
2018-07-31T10:54:21.758Z,1004.51
2018-07-31T10:55:21.683Z,1004.50
2018-07-31T10:56:21.711Z,1004.51
2018-07-31T10:57:21.745Z,1004.52
2018-07-31T10:58:21.803Z,1004.50
2018-07-31T10:59:21.806Z,1004.55
2018-07-31T11:00:21.887Z,1004.51
2018-07-31T11:01:21.944Z,1004.49
2018-07-31T11:02:21.904Z,1004.52
2018-07-31T11:03:21.955Z,1004.52
2018-07-31T11:04:22.035Z,1004.54
2018-07-31T11:05:22.018Z,1004.55
2018-07-31T11:06:22.160Z,1004.52
2018-07-31T11:07:22.054Z,1004.50
2018-07-31T11:08:22.089Z,1004.51
2018-07-31T11:09:22.116Z,1004.44
2018-07-31T11:10:22.194Z,1004.49
2018-07-31T11:11:22.173Z,1004.48
2018-07-31T11:12:22.197Z,1004.45
2018-07-31T11:13:22.312Z,1004.47
2018-07-31T11:14:22.264Z,1004.44
2018-07-31T11:15:22.287Z,1004.45
2018-07-31T11:16:22.336Z,1004.49
2018-07-31T11:17:22.352Z,1004.43
2018-07-31T11:18:22.379Z,1004.44
2018-07-31T11:19:22.418Z,1004.43
2018-07-31T11:20:22.441Z,1004.45
2018-07-31T11:21:22.549Z,1004.42
2018-07-31T11:22:22.506Z,1004.44
2018-07-31T11:23:22.541Z,1004.40
2018-07-31T11:24:22.575Z,1004.44
2018-07-31T11:25:22.604Z,1004.43
2018-07-31T11:26:22.662Z,1004.44
2018-07-31T11:27:22.705Z,1004.43
2018-07-31T11:28:22.692Z,1004.37
2018-07-31T11:29:22.722Z,1004.39
2018-07-31T11:30:22.751Z,1004.38
2018-07-31T11:31:22.793Z,1004.38
2018-07-31T11:32:22.824Z,1004.33
2018-07-31T11:33:22.855Z,1004.36
2018-07-31T11:35:22.899Z,1004.35
2018-07-31T11:36:22.933Z,1004.33
2018-07-31T11:37:22.969Z,1004.25
2018-07-31T11:38:23.050Z,1004.29
2018-07-31T11:39:23.050Z,1004.23
2018-07-31T11:40:23.066Z,1004.28
2018-07-31T11:41:23.088Z,1004.19
2018-07-31T11:42:23.149Z,1004.20
2018-07-31T11:43:23.171Z,1004.17
2018-07-31T11:44:23.198Z,1004.21
2018-07-31T11:45:23.218Z,1004.20
2018-07-31T11:46:23.244Z,1004.19
2018-07-31T11:48:23.305Z,1004.20
2018-07-31T11:49:23.345Z,1004.15
2018-07-31T11:50:23.377Z,1004.24
2018-07-31T11:51:23.411Z,1004.21
2018-07-31T11:52:23.453Z,1004.19
2018-07-31T11:53:23.468Z,1004.18
2018-07-31T11:54:23.496Z,1004.19
2018-07-31T11:55:23.556Z,1004.15
2018-07-31T11:56:23.579Z,1004.16
2018-07-31T11:57:23.594Z,1004.16
2018-07-31T11:58:23.626Z,1004.16
2018-07-31T11:59:23.665Z,1004.18
2018-07-31T12:00:23.697Z,1004.16
2018-07-31T12:01:23.763Z,1004.12
2018-07-31T12:02:23.760Z,1004.12
2018-07-31T12:03:23.784Z,1004.14
2018-07-31T12:04:23.814Z,1004.10
2018-07-31T12:06:23.886Z,1004.13
2018-07-31T12:07:23.907Z,1004.10
2018-07-31T12:08:23.940Z,1004.12
2018-07-31T12:09:23.980Z,1004.05
2018-07-31T12:10:24.007Z,1004.07
2018-07-31T12:11:24.081Z,1004.12
2018-07-31T12:12:24.073Z,1004.09
2018-07-31T12:13:24.103Z,1004.08
2018-07-31T12:14:24.133Z,1004.11
2018-07-31T12:15:24.194Z,1004.08
2018-07-31T12:16:24.275Z,1004.07
2018-07-31T12:17:24.236Z,1004.07
2018-07-31T12:18:24.264Z,1004.08
2018-07-31T12:19:24.294Z,1004.11
2018-07-31T12:20:24.334Z,1004.10
2018-07-31T12:21:24.365Z,1004.16
2018-07-31T12:22:24.399Z,1004.15
2018-07-31T12:23:24.513Z,1004.12
2018-07-31T12:24:24.459Z,1004.12
2018-07-31T12:25:24.522Z,1004.07
2018-07-31T12:26:24.518Z,1004.10
2018-07-31T12:27:24.554Z,1004.09
2018-07-31T12:28:24.586Z,1004.07
2018-07-31T12:29:24.628Z,1004.05
2018-07-31T12:31:24.695Z,1004.08
2018-07-31T12:32:24.773Z,1004.06
2018-07-31T12:33:24.752Z,1004.08
2018-07-31T12:34:24.781Z,1004.04
2018-07-31T12:35:24.813Z,1004.08
2018-07-31T12:36:24.838Z,1004.08
2018-07-31T12:37:24.867Z,1004.12
2018-07-31T12:38:24.904Z,1004.02
2018-07-31T12:39:24.937Z,1004.06
2018-07-31T12:40:24.970Z,1004.05